Terminal Aerodrome Forecast
Issued by NWS

Current Version | Previous Version | Text Only | Print | Product List | Glossary On
Versions: 1 2 3 4 5 6 7 8 9 10 11 12 13 14 15 16 17 18 19 20 21 22 23 24 25 26 27 28 29 30
700
FTUS42 TJSJ 170520
TAFIST
TAF
TIST 170520Z 1706/1806 09010KT P6SM VCSH SCT025 SCT040
     FM171400 12015G22KT P6SM SCT025
     FM172200 07010KT P6SM FEW025
     FM180300 10007KT P6SM FEW030=

USA.gov is the U.S. government's official web portal to all federal, state and local government web resources and services.